DAL2283 KBOS-KRDU
Flight info
| Callsign | DAL2283 |
|---|---|
| Flight time | N/A |
| Altitude | 34000 |
| Route | SSOXS7 SSOXS Q167 ZJAAY TAQLE3 |
| Aircraft | A321/M-SDE3FGHIRWY/LB1 |
Departure
| Time | 2026-05-06 21:35 |
|---|---|
| Airport | Boston Logan International Airport (KBOS) |
Arrival
| Time | N/A |
|---|---|
| Airport | Raleigh-Durham International Airport (KRDU) |
| Time | Latitude | Longitude | Altitude | Speed | Heading |
|---|---|---|---|---|---|
| 2026-05-06 20:36 | 42.36330 | -71.02122 | 27 ft | 0 kts | 15° |
| 2026-05-06 21:23 | 42.36328 | -71.02123 | 25 ft | 1 kts | 16° |
| 2026-05-06 21:23 | 42.36312 | -71.02130 | 31 ft | 3 kts | 17° |
| 2026-05-06 21:23 | 42.36294 | -71.02135 | 28 ft | 3 kts | 341° |
| 2026-05-06 21:23 | 42.36284 | -71.02127 | 31 ft | 3 kts | 272° |
| 2026-05-06 21:24 | 42.36285 | -71.02113 | 31 ft | 2 kts | 253° |
| 2026-05-06 21:24 | 42.36289 | -71.02092 | 29 ft | 1 kts | 253° |
| 2026-05-06 21:24 | 42.36290 | -71.02089 | 28 ft | 0 kts | 253° |
| 2026-05-06 21:27 | 42.36283 | -71.02123 | 31 ft | 7 kts | 253° |
| 2026-05-06 21:28 | 42.36263 | -71.02214 | 27 ft | 12 kts | 251° |
| 2026-05-06 21:28 | 42.36176 | -71.02277 | 26 ft | 18 kts | 189° |
| 2026-05-06 21:28 | 42.36082 | -71.02189 | 28 ft | 20 kts | 118° |
| 2026-05-06 21:28 | 42.36005 | -71.02015 | 27 ft | 22 kts | 121° |
| 2026-05-06 21:29 | 42.35927 | -71.01834 | 25 ft | 21 kts | 115° |
| 2026-05-06 21:29 | 42.35898 | -71.01670 | 25 ft | 16 kts | 102° |
| 2026-05-06 21:29 | 42.35916 | -71.01539 | 26 ft | 14 kts | 36° |
| 2026-05-06 21:29 | 42.36010 | -71.01493 | 27 ft | 15 kts | 19° |
| 2026-05-06 21:30 | 42.36112 | -71.01442 | 26 ft | 16 kts | 19° |
| 2026-05-06 21:30 | 42.36225 | -71.01388 | 27 ft | 18 kts | 19° |
| 2026-05-06 21:30 | 42.36348 | -71.01329 | 25 ft | 19 kts | 19° |
| 2026-05-06 21:30 | 42.36478 | -71.01266 | 28 ft | 20 kts | 20° |
| 2026-05-06 21:31 | 42.36614 | -71.01199 | 28 ft | 21 kts | 19° |
| 2026-05-06 21:31 | 42.36750 | -71.01141 | 25 ft | 19 kts | 9° |
| 2026-05-06 21:31 | 42.36848 | -71.01222 | 25 ft | 17 kts | 324° |
| 2026-05-06 21:31 | 42.36939 | -71.01158 | 27 ft | 17 kts | 41° |
| 2026-05-06 21:32 | 42.37042 | -71.01076 | 28 ft | 18 kts | 25° |
| 2026-05-06 21:32 | 42.37282 | -71.00920 | 30 ft | 20 kts | 25° |
| 2026-05-06 21:32 | 42.37417 | -71.00851 | 27 ft | 21 kts | 19° |
| 2026-05-06 21:33 | 42.37557 | -71.00785 | 25 ft | 22 kts | 19° |
| 2026-05-06 21:33 | 42.37704 | -71.00712 | 27 ft | 23 kts | 19° |
| 2026-05-06 21:33 | 42.37813 | -71.00658 | 26 ft | 11 kts | 29° |
| 2026-05-06 21:33 | 42.37831 | -71.00562 | 27 ft | 12 kts | 108° |
| 2026-05-06 21:34 | 42.37780 | -71.00486 | 25 ft | 13 kts | 177° |
| 2026-05-06 21:34 | 42.37622 | -71.00556 | 27 ft | 51 kts | 199° |
| 2026-05-06 21:34 | 42.37080 | -71.00818 | 27 ft | 112 kts | 199° |
| 2026-05-06 21:34 | 42.36188 | -71.01247 | 39 ft | 157 kts | 199° |
| 2026-05-06 21:35 | 42.35138 | -71.01740 | 621 ft | 159 kts | 197° |
| 2026-05-06 21:35 | 42.34059 | -71.01719 | 1381 ft | 159 kts | 167° |
| 2026-05-06 21:35 | 42.33086 | -71.00924 | 1872 ft | 176 kts | 147° |
| 2026-05-06 21:35 | 42.32348 | -70.99435 | 2021 ft | 205 kts | 128° |
| 2026-05-06 21:36 | 42.31895 | -70.98281 | 2126 ft | 214 kts | 129° |
| 2026-05-06 21:36 | 42.31365 | -70.96293 | 2364 ft | 238 kts | 109° |
| 2026-05-06 21:36 | 42.31383 | -70.93912 | 2543 ft | 271 kts | 86° |
| 2026-05-06 21:36 | 42.31571 | -70.91311 | 2692 ft | 281 kts | 106° |
| 2026-05-06 21:37 | 42.31000 | -70.88856 | 3160 ft | 272 kts | 129° |
| 2026-05-06 21:37 | 42.29792 | -70.86997 | 3798 ft | 255 kts | 154° |
| 2026-05-06 21:37 | 42.28262 | -70.85990 | 4510 ft | 239 kts | 175° |
| 2026-05-06 21:37 | 42.26644 | -70.85545 | 5210 ft | 237 kts | 178° |
| 2026-05-06 21:38 | 42.25015 | -70.85125 | 5870 ft | 239 kts | 179° |
| 2026-05-06 21:38 | 42.23398 | -70.84709 | 6423 ft | 242 kts | 177° |
| 2026-05-06 21:38 | 42.21712 | -70.84277 | 6970 ft | 245 kts | 178° |
| 2026-05-06 21:38 | 42.20049 | -70.83862 | 7501 ft | 248 kts | 178° |
| 2026-05-06 21:39 | 42.18334 | -70.83435 | 8046 ft | 253 kts | 179° |
| 2026-05-06 21:39 | 42.16598 | -70.82998 | 8623 ft | 255 kts | 179° |
| 2026-05-06 21:39 | 42.14851 | -70.82553 | 9230 ft | 257 kts | 179° |
| 2026-05-06 21:39 | 42.13085 | -70.82101 | 9792 ft | 260 kts | 179° |
| 2026-05-06 21:40 | 42.11277 | -70.81644 | 10091 ft | 272 kts | 179° |
| 2026-05-06 21:40 | 42.09355 | -70.81173 | 10213 ft | 290 kts | 179° |
| 2026-05-06 21:40 | 42.07310 | -70.80668 | 10340 ft | 307 kts | 178° |
| 2026-05-06 21:40 | 42.05145 | -70.80122 | 10460 ft | 324 kts | 178° |
| 2026-05-06 21:41 | 42.02883 | -70.79547 | 10634 ft | 337 kts | 178° |
| 2026-05-06 21:41 | 42.00556 | -70.78946 | 11055 ft | 343 kts | 177° |
| 2026-05-06 21:41 | 41.98199 | -70.78332 | 11488 ft | 347 kts | 177° |
| 2026-05-06 21:41 | 41.95821 | -70.77711 | 11986 ft | 350 kts | 177° |
| 2026-05-06 21:42 | 41.93416 | -70.77088 | 12468 ft | 354 kts | 178° |
| 2026-05-06 21:42 | 41.90988 | -70.76469 | 12949 ft | 357 kts | 178° |
| 2026-05-06 21:42 | 41.88564 | -70.75854 | 13395 ft | 360 kts | 178° |
| 2026-05-06 21:42 | 41.86091 | -70.75497 | 13818 ft | 355 kts | 187° |
| 2026-05-06 21:43 | 41.83651 | -70.75765 | 14223 ft | 350 kts | 197° |
| 2026-05-06 21:43 | 41.81314 | -70.76617 | 14626 ft | 347 kts | 206° |
| 2026-05-06 21:43 | 41.79150 | -70.78005 | 15005 ft | 345 kts | 214° |
| 2026-05-06 21:43 | 41.77050 | -70.79602 | 15404 ft | 348 kts | 214° |
| 2026-05-06 21:44 | 41.74932 | -70.81203 | 15820 ft | 351 kts | 213° |
| 2026-05-06 21:44 | 41.72795 | -70.82806 | 16232 ft | 354 kts | 213° |
| 2026-05-06 21:44 | 41.70642 | -70.84417 | 16621 ft | 356 kts | 213° |
| 2026-05-06 21:44 | 41.68472 | -70.86039 | 17029 ft | 358 kts | 213° |
| 2026-05-06 21:45 | 41.66285 | -70.87674 | 17412 ft | 361 kts | 213° |
| 2026-05-06 21:45 | 41.64087 | -70.89317 | 17847 ft | 363 kts | 213° |
| 2026-05-06 21:45 | 41.61881 | -70.90963 | 18271 ft | 364 kts | 213° |
| 2026-05-06 21:45 | 41.59665 | -70.92617 | 18593 ft | 366 kts | 213° |
| 2026-05-06 21:46 | 41.57433 | -70.94285 | 18928 ft | 368 kts | 214° |
| 2026-05-06 21:46 | 41.55334 | -70.96221 | 19264 ft | 366 kts | 224° |
| 2026-05-06 21:46 | 41.53551 | -70.98639 | 19584 ft | 365 kts | 233° |
| 2026-05-06 21:46 | 41.52097 | -71.01425 | 19900 ft | 367 kts | 238° |
| 2026-05-06 21:47 | 41.50689 | -71.04274 | 20231 ft | 369 kts | 238° |
| 2026-05-06 21:47 | 41.49263 | -71.07132 | 20562 ft | 371 kts | 238° |
| 2026-05-06 21:47 | 41.47822 | -71.10001 | 20881 ft | 374 kts | 238° |
| 2026-05-06 21:47 | 41.46369 | -71.12888 | 21186 ft | 376 kts | 238° |
| 2026-05-06 21:48 | 41.44927 | -71.15752 | 21477 ft | 378 kts | 238° |
| 2026-05-06 21:48 | 41.43459 | -71.18667 | 21777 ft | 380 kts | 238° |
| 2026-05-06 21:48 | 41.41981 | -71.21605 | 22087 ft | 382 kts | 239° |
| 2026-05-06 21:48 | 41.40501 | -71.24549 | 22388 ft | 384 kts | 239° |
| 2026-05-06 21:49 | 41.39010 | -71.27510 | 22692 ft | 386 kts | 239° |
| 2026-05-06 21:49 | 41.37508 | -71.30485 | 22987 ft | 388 kts | 239° |
| 2026-05-06 21:49 | 41.36000 | -71.33467 | 23296 ft | 390 kts | 239° |
| 2026-05-06 21:49 | 41.34484 | -71.36467 | 23572 ft | 391 kts | 239° |
| 2026-05-06 21:50 | 41.32963 | -71.39479 | 23828 ft | 393 kts | 239° |
| 2026-05-06 21:50 | 41.31438 | -71.42503 | 24098 ft | 394 kts | 239° |
| 2026-05-06 21:50 | 41.29911 | -71.45529 | 24367 ft | 395 kts | 239° |
| 2026-05-06 21:50 | 41.28374 | -71.48572 | 24635 ft | 396 kts | 239° |
| 2026-05-06 21:51 | 41.26835 | -71.51603 | 24896 ft | 396 kts | 239° |
| 2026-05-06 21:51 | 41.25288 | -71.54644 | 25154 ft | 397 kts | 239° |
| 2026-05-06 21:51 | 41.23738 | -71.57692 | 25428 ft | 398 kts | 240° |
| 2026-05-06 21:51 | 41.22191 | -71.60738 | 25700 ft | 398 kts | 240° |
| 2026-05-06 21:52 | 41.20643 | -71.63787 | 25947 ft | 398 kts | 240° |
| 2026-05-06 21:52 | 41.19091 | -71.66836 | 26188 ft | 399 kts | 240° |
| 2026-05-06 21:52 | 41.17553 | -71.69848 | 26425 ft | 400 kts | 240° |
| 2026-05-06 21:52 | 41.15990 | -71.72906 | 26673 ft | 401 kts | 240° |
| 2026-05-06 21:53 | 41.14425 | -71.75967 | 26908 ft | 402 kts | 240° |
| 2026-05-06 21:53 | 41.12858 | -71.79040 | 27160 ft | 402 kts | 240° |
| 2026-05-06 21:53 | 41.11290 | -71.82120 | 27423 ft | 402 kts | 240° |
| 2026-05-06 21:53 | 41.09727 | -71.85188 | 27773 ft | 400 kts | 240° |
| 2026-05-06 21:54 | 41.08172 | -71.88239 | 28115 ft | 399 kts | 240° |
| 2026-05-06 21:54 | 41.06621 | -71.91280 | 28467 ft | 397 kts | 241° |
| 2026-05-06 21:54 | 41.05083 | -71.94295 | 28864 ft | 393 kts | 241° |
| 2026-05-06 21:54 | 41.03587 | -71.97307 | 29219 ft | 388 kts | 244° |
| 2026-05-06 21:55 | 41.02394 | -72.00483 | 29552 ft | 384 kts | 249° |
| 2026-05-06 21:55 | 41.01273 | -72.03683 | 29863 ft | 382 kts | 249° |
| 2026-05-06 21:55 | 41.00155 | -72.06871 | 30120 ft | 381 kts | 249° |
| 2026-05-06 21:55 | 40.99037 | -72.10047 | 30343 ft | 380 kts | 249° |
| 2026-05-06 21:56 | 40.97921 | -72.13212 | 30567 ft | 379 kts | 249° |
| 2026-05-06 21:56 | 40.96805 | -72.16367 | 30801 ft | 378 kts | 249° |
| 2026-05-06 21:56 | 40.95692 | -72.19513 | 31037 ft | 377 kts | 249° |
| 2026-05-06 21:56 | 40.94580 | -72.22653 | 31290 ft | 376 kts | 249° |
| 2026-05-06 21:57 | 40.93472 | -72.25775 | 31577 ft | 375 kts | 249° |
| 2026-05-06 21:57 | 40.92357 | -72.28883 | 31828 ft | 374 kts | 247° |
| 2026-05-06 21:57 | 40.89166 | -72.34345 | 31874 ft | 382 kts | 233° |
| 2026-05-06 21:58 | 40.85404 | -72.39236 | 31875 ft | 381 kts | 233° |
| 2026-05-06 21:58 | 40.81620 | -72.44159 | 31859 ft | 382 kts | 233° |
| 2026-05-06 21:59 | 40.77615 | -72.48864 | 31865 ft | 388 kts | 229° |
| 2026-05-06 21:59 | 40.73443 | -72.53383 | 31863 ft | 388 kts | 228° |
| 2026-05-06 22:00 | 40.69266 | -72.57891 | 31866 ft | 388 kts | 229° |
| 2026-05-06 22:00 | 40.65191 | -72.62450 | 31859 ft | 386 kts | 230° |
| 2026-05-06 22:01 | 40.61182 | -72.67124 | 31871 ft | 385 kts | 231° |
| 2026-05-06 22:01 | 40.57172 | -72.71788 | 31868 ft | 385 kts | 230° |
| 2026-05-06 22:02 | 40.53142 | -72.76422 | 31876 ft | 385 kts | 230° |
| 2026-05-06 22:02 | 40.49104 | -72.81036 | 31875 ft | 385 kts | 230° |
| 2026-05-06 22:03 | 40.45056 | -72.85651 | 31835 ft | 385 kts | 230° |
| 2026-05-06 22:03 | 40.41017 | -72.90260 | 31844 ft | 385 kts | 230° |
| 2026-05-06 22:04 | 40.36969 | -72.94866 | 31852 ft | 385 kts | 230° |
| 2026-05-06 22:04 | 40.32916 | -72.99465 | 31888 ft | 385 kts | 230° |
| 2026-05-06 22:05 | 40.28875 | -73.04052 | 31839 ft | 384 kts | 230° |
| 2026-05-06 22:05 | 40.24836 | -73.08628 | 31850 ft | 384 kts | 230° |
| 2026-05-06 22:06 | 40.20787 | -73.13216 | 31855 ft | 385 kts | 230° |
| 2026-05-06 22:06 | 40.16734 | -73.17798 | 31873 ft | 385 kts | 230° |
| 2026-05-06 22:07 | 40.12697 | -73.22346 | 31875 ft | 386 kts | 230° |
| 2026-05-06 22:07 | 40.08630 | -73.26917 | 31846 ft | 386 kts | 230° |
| 2026-05-06 22:08 | 40.04557 | -73.31497 | 31866 ft | 387 kts | 230° |
| 2026-05-06 22:08 | 40.00476 | -73.36075 | 31873 ft | 386 kts | 230° |
| 2026-05-06 22:09 | 39.96393 | -73.40646 | 31873 ft | 387 kts | 230° |
| 2026-05-06 22:09 | 39.92316 | -73.45202 | 31834 ft | 386 kts | 230° |
| 2026-05-06 22:10 | 39.88233 | -73.49766 | 31851 ft | 387 kts | 230° |
| 2026-05-06 22:10 | 39.84130 | -73.54318 | 31858 ft | 388 kts | 230° |
| 2026-05-06 22:11 | 39.80054 | -73.58840 | 31867 ft | 388 kts | 230° |
| 2026-05-06 22:11 | 39.75948 | -73.63398 | 31870 ft | 388 kts | 230° |
| 2026-05-06 22:12 | 39.71851 | -73.67950 | 31859 ft | 388 kts | 230° |
| 2026-05-06 22:12 | 39.67752 | -73.72494 | 31868 ft | 387 kts | 230° |
| 2026-05-06 22:13 | 39.63650 | -73.77030 | 31873 ft | 387 kts | 230° |
| 2026-05-06 22:13 | 39.59540 | -73.81567 | 31876 ft | 387 kts | 230° |
| 2026-05-06 22:14 | 39.55437 | -73.86098 | 31880 ft | 387 kts | 230° |
| 2026-05-06 22:14 | 39.51328 | -73.90623 | 31888 ft | 387 kts | 230° |
| 2026-05-06 22:15 | 39.47249 | -73.95110 | 31883 ft | 387 kts | 230° |
| 2026-05-06 22:15 | 39.43142 | -73.99613 | 31886 ft | 387 kts | 230° |
| 2026-05-06 22:16 | 39.39038 | -74.04115 | 31897 ft | 387 kts | 230° |
| 2026-05-06 22:16 | 39.34936 | -74.08606 | 31869 ft | 386 kts | 230° |
| 2026-05-06 22:17 | 39.30833 | -74.13076 | 31872 ft | 386 kts | 230° |
| 2026-05-06 22:17 | 39.26729 | -74.17538 | 31876 ft | 386 kts | 230° |
| 2026-05-06 22:18 | 39.22628 | -74.22000 | 31876 ft | 386 kts | 230° |
| 2026-05-06 22:18 | 39.18526 | -74.26466 | 31879 ft | 385 kts | 230° |
| 2026-05-06 22:19 | 39.14410 | -74.30933 | 31848 ft | 388 kts | 229° |
| 2026-05-06 22:19 | 39.10271 | -74.35407 | 31868 ft | 389 kts | 229° |
| 2026-05-06 22:20 | 39.06158 | -74.39848 | 31896 ft | 388 kts | 229° |
| 2026-05-06 22:20 | 39.02029 | -74.44306 | 31898 ft | 387 kts | 229° |
| 2026-05-06 22:21 | 38.97899 | -74.48759 | 31883 ft | 387 kts | 229° |
| 2026-05-06 22:21 | 38.93767 | -74.53213 | 31878 ft | 387 kts | 229° |
| 2026-05-06 22:22 | 38.89754 | -74.57808 | 31883 ft | 385 kts | 231° |
| 2026-05-06 22:22 | 38.85832 | -74.62495 | 31888 ft | 386 kts | 231° |
| 2026-05-06 22:23 | 38.81882 | -74.67171 | 31893 ft | 386 kts | 231° |
| 2026-05-06 22:23 | 38.77905 | -74.71815 | 31862 ft | 387 kts | 231° |
| 2026-05-06 22:24 | 38.73899 | -74.76430 | 31879 ft | 388 kts | 230° |
| 2026-05-06 22:24 | 38.69715 | -74.80835 | 31887 ft | 391 kts | 228° |
| 2026-05-06 22:25 | 38.65480 | -74.85132 | 31892 ft | 391 kts | 228° |
| 2026-05-06 22:25 | 38.61252 | -74.89480 | 31896 ft | 390 kts | 228° |
| 2026-05-06 22:26 | 38.57723 | -74.93154 | 31875 ft | 390 kts | 228° |
| 2026-05-06 22:26 | 38.53535 | -74.97508 | 31878 ft | 391 kts | 228° |
| 2026-05-06 22:27 | 38.49375 | -75.01980 | 31893 ft | 390 kts | 230° |
| 2026-05-06 22:27 | 38.45267 | -75.06527 | 31911 ft | 392 kts | 228° |
| 2026-05-06 22:28 | 38.40906 | -75.10784 | 31920 ft | 396 kts | 225° |
| 2026-05-06 22:28 | 38.36439 | -75.14896 | 31883 ft | 397 kts | 224° |
| 2026-05-06 22:29 | 38.31972 | -75.19061 | 31885 ft | 398 kts | 225° |
| 2026-05-06 22:29 | 38.27520 | -75.23282 | 31890 ft | 399 kts | 225° |
| 2026-05-06 22:30 | 38.23090 | -75.27490 | 31892 ft | 400 kts | 225° |
| 2026-05-06 22:30 | 38.18622 | -75.31721 | 31873 ft | 401 kts | 224° |
| 2026-05-06 22:31 | 38.14136 | -75.35946 | 31877 ft | 402 kts | 224° |
| 2026-05-06 22:31 | 38.09629 | -75.40186 | 31883 ft | 403 kts | 224° |
| 2026-05-06 22:32 | 38.05144 | -75.44459 | 31894 ft | 401 kts | 228° |
| 2026-05-06 22:32 | 38.01071 | -75.49229 | 31917 ft | 398 kts | 230° |
| 2026-05-06 22:33 | 37.97006 | -75.53992 | 31888 ft | 399 kts | 229° |
| 2026-05-06 22:33 | 37.92919 | -75.58765 | 31897 ft | 400 kts | 229° |
| 2026-05-06 22:34 | 37.88836 | -75.63519 | 31895 ft | 401 kts | 229° |
| 2026-05-06 22:34 | 37.84723 | -75.68317 | 31894 ft | 402 kts | 229° |
| 2026-05-06 22:35 | 37.80610 | -75.73120 | 31902 ft | 402 kts | 229° |
| 2026-05-06 22:35 | 37.76481 | -75.77929 | 31903 ft | 406 kts | 229° |
| 2026-05-06 22:36 | 37.72308 | -75.82778 | 31929 ft | 408 kts | 229° |
| 2026-05-06 22:36 | 37.68125 | -75.87618 | 31931 ft | 408 kts | 229° |
| 2026-05-06 22:37 | 37.63938 | -75.92448 | 31928 ft | 407 kts | 229° |
| 2026-05-06 22:37 | 37.59887 | -75.97401 | 31910 ft | 401 kts | 237° |
| 2026-05-06 22:38 | 37.56393 | -76.02864 | 31908 ft | 400 kts | 237° |
| 2026-05-06 22:38 | 37.52907 | -76.08269 | 31906 ft | 400 kts | 236° |
| 2026-05-06 22:39 | 37.49391 | -76.13718 | 31895 ft | 401 kts | 236° |
| 2026-05-06 22:39 | 37.45866 | -76.19177 | 31909 ft | 402 kts | 237° |
| 2026-05-06 22:40 | 37.42337 | -76.24632 | 31905 ft | 401 kts | 237° |
| 2026-05-06 22:40 | 37.38806 | -76.30076 | 31888 ft | 402 kts | 237° |
| 2026-05-06 22:41 | 37.33490 | -76.38259 | 31884 ft | 404 kts | 237° |
| 2026-05-06 22:42 | 37.29947 | -76.43704 | 31890 ft | 405 kts | 236° |
| 2026-05-06 22:42 | 37.26375 | -76.49183 | 31905 ft | 405 kts | 237° |
| 2026-05-06 22:43 | 37.22827 | -76.54681 | 31922 ft | 405 kts | 237° |
| 2026-05-06 22:43 | 37.19312 | -76.60203 | 31915 ft | 404 kts | 237° |
| 2026-05-06 22:44 | 37.15800 | -76.65711 | 31893 ft | 405 kts | 237° |
| 2026-05-06 22:44 | 37.12259 | -76.71215 | 31896 ft | 406 kts | 237° |
| 2026-05-06 22:45 | 37.08704 | -76.76718 | 31898 ft | 406 kts | 237° |
| 2026-05-06 22:45 | 37.05166 | -76.82188 | 31903 ft | 407 kts | 237° |